Time;durP1;ratioP1;P1;durP2;ratioP2;P2;SDS_P1;SDS_P2;PMS_P1;PMS_P2;Temp;Humidity;BMP_temperature;BMP_pressure;BME280_temperature;BME280_humidity;BME280_pressure;Samples;Min_cycle;Max_cycle;Signal;HPM_P1;HPM_P2
2021/11/06 00:00:58;;;;;;;11.70;3.37;;;7.50;95.50;;;;;;5034610;28;20030;-75
2021/11/06 00:03:24;;;;;;;11.30;4.53;;;7.50;95.60;;;;;;5034400;28;20496;-74
2021/11/06 00:05:50;;;;;;;8.77;4.00;;;7.50;95.50;;;;;;5033488;28;20029;-75
2021/11/06 00:08:16;;;;;;;9.17;4.23;;;7.60;95.50;;;;;;5034582;28;20033;-74
2021/11/06 00:10:42;;;;;;;8.00;4.00;;;7.50;95.60;;;;;;5032867;28;20466;-75
2021/11/06 00:13:07;;;;;;;12.07;3.97;;;7.50;95.60;;;;;;5033122;28;20497;-75
2021/11/06 00:15:33;;;;;;;7.53;3.80;;;7.50;95.70;;;;;;5033093;28;20122;-75
2021/11/06 00:17:59;;;;;;;9.47;5.10;;;7.50;95.60;;;;;;5066140;28;20049;-75
2021/11/06 00:20:25;;;;;;;10.87;4.50;;;7.40;95.70;;;;;;5034237;28;20494;-75
2021/11/06 00:22:50;;;;;;;9.83;5.20;;;7.40;95.70;;;;;;5032919;28;20104;-75
2021/11/06 00:25:16;;;;;;;8.70;4.60;;;7.40;95.70;;;;;;5032731;28;20072;-75
2021/11/06 00:27:44;;;;;;;9.57;3.90;;;7.40;95.70;;;;;;5033635;28;20037;-76
2021/11/06 00:30:11;;;;;;;11.63;4.60;;;7.30;95.60;;;;;;5049200;28;20025;-75
2021/11/06 00:32:37;;;;;;;8.30;4.47;;;7.30;95.70;;;;;;5032639;28;20025;-75
2021/11/06 00:35:04;;;;;;;12.30;5.00;;;7.30;95.80;;;;;;5049210;28;20112;-75
2021/11/06 00:37:30;;;;;;;9.40;4.20;;;7.20;95.70;;;;;;5034098;28;20339;-75
2021/11/06 00:39:55;;;;;;;8.20;4.10;;;7.20;95.80;;;;;;5016265;28;20063;-75
2021/11/06 00:42:21;;;;;;;13.10;5.13;;;7.10;95.80;;;;;;5033910;28;20479;-75
2021/11/06 00:44:47;;;;;;;10.23;4.73;;;7.10;96.00;;;;;;5032429;28;20041;-75
2021/11/06 00:47:13;;;;;;;10.73;5.37;;;7.20;96.00;;;;;;5033657;28;20109;-75
2021/11/06 00:49:39;;;;;;;16.93;5.57;;;7.20;96.00;;;;;;5032304;28;20029;-75
2021/11/06 00:52:06;;;;;;;12.40;5.80;;;7.20;96.00;;;;;;5032831;28;20034;-74
2021/11/06 00:54:32;;;;;;;11.10;5.37;;;7.20;96.10;;;;;;5048905;28;20124;-75
2021/11/06 00:56:57;;;;;;;15.73;6.37;;;7.20;96.10;;;;;;5033432;28;20545;-75
2021/11/06 00:59:23;;;;;;;11.80;5.57;;;7.20;96.10;;;;;;5032426;28;20025;-76
2021/11/06 01:01:51;;;;;;;11.50;6.27;;;7.20;96.10;;;;;;5035151;28;20056;-75
2021/11/06 01:04:17;;;;;;;11.57;5.87;;;7.20;96.20;;;;;;5047601;28;20021;-75
2021/11/06 01:06:42;;;;;;;11.83;6.20;;;7.20;96.10;;;;;;5052945;28;20040;-75
2021/11/06 01:09:08;;;;;;;13.10;5.70;;;7.30;96.10;;;;;;5051506;28;20025;-75
2021/11/06 01:11:35;;;;;;;11.27;6.07;;;7.20;96.10;;;;;;5052947;28;20028;-75
2021/11/06 01:14:00;;;;;;;12.50;7.23;;;7.20;96.20;;;;;;5053048;28;20021;-75
2021/11/06 01:16:26;;;;;;;12.03;7.00;;;7.30;96.20;;;;;;5052906;28;20108;-74
2021/11/06 01:18:52;;;;;;;12.90;7.27;;;7.20;96.20;;;;;;5051865;28;20028;-74
2021/11/06 01:21:17;;;;;;;11.87;6.93;;;7.30;96.20;;;;;;5035092;28;20132;-74
2021/11/06 01:23:43;;;;;;;21.33;8.00;;;7.30;96.20;;;;;;5051742;28;20025;-73
2021/11/06 01:26:09;;;;;;;13.53;7.57;;;7.30;96.20;;;;;;5035124;28;20162;-73
2021/11/06 01:28:34;;;;;;;13.53;8.00;;;7.30;96.20;;;;;;5051659;28;20057;-74
2021/11/06 01:31:00;;;;;;;16.17;7.87;;;7.30;96.20;;;;;;5052721;28;20029;-75
2021/11/06 01:33:26;;;;;;;12.50;7.57;;;7.30;96.20;;;;;;5035394;28;20025;-75
2021/11/06 01:35:51;;;;;;;13.13;7.10;;;7.30;96.10;;;;;;5035014;28;20075;-74
2021/11/06 01:38:17;;;;;;;14.33;7.87;;;7.30;96.10;;;;;;5049829;28;20037;-75
2021/11/06 01:40:43;;;;;;;16.07;8.30;;;7.40;96.20;;;;;;5048855;28;20087;-74
2021/11/06 01:43:09;;;;;;;14.33;8.17;;;7.30;96.10;;;;;;5052951;28;20108;-74
2021/11/06 01:45:34;;;;;;;12.73;7.57;;;7.40;96.20;;;;;;5051196;28;20028;-74
2021/11/06 01:48:00;;;;;;;12.50;7.33;;;7.50;96.10;;;;;;5055064;28;20397;-75
2021/11/06 01:50:27;;;;;;;14.40;9.37;;;7.40;96.10;;;;;;5055557;28;20025;-74
2021/11/06 01:52:52;;;;;;;15.20;8.90;;;7.40;96.10;;;;;;5055401;28;20013;-75
2021/11/06 01:55:19;;;;;;;17.40;9.67;;;7.40;96.00;;;;;;5056644;28;20070;-75
2021/11/06 01:57:46;;;;;;;16.47;8.63;;;7.40;96.00;;;;;;5055738;28;20021;-75
2021/11/06 02:00:18;;;;;;;12.90;8.00;;;7.40;96.00;;;;;;5055389;28;20518;-75
2021/11/06 02:02:44;;;;;;;14.73;8.13;;;7.40;96.00;;;;;;5056964;28;20025;-75
2021/11/06 02:05:11;;;;;;;16.17;9.83;;;7.40;96.00;;;;;;5055395;28;20036;-75
2021/11/06 02:07:37;;;;;;;18.83;10.30;;;7.40;96.00;;;;;;5056643;28;20081;-75
2021/11/06 02:10:05;;;;;;;16.50;9.20;;;7.50;96.00;;;;;;5055356;28;20115;-75
2021/11/06 02:12:32;;;;;;;15.27;9.13;;;7.50;96.00;;;;;;5055732;28;20023;-74
2021/11/06 02:14:58;;;;;;;15.03;8.97;;;7.50;96.00;;;;;;5055122;28;20032;-75
2021/11/06 02:17:24;;;;;;;16.13;8.47;;;7.50;96.00;;;;;;5056394;28;20064;-74
2021/11/06 02:19:49;;;;;;;17.03;8.67;;;7.50;95.90;;;;;;5055206;28;20045;-75
2021/11/06 02:22:15;;;;;;;16.10;8.13;;;7.50;95.90;;;;;;5055161;28;20405;-74
2021/11/06 02:24:41;;;;;;;19.73;8.80;;;7.50;96.20;;;;;;5056418;28;20029;-75
2021/11/06 02:27:06;;;;;;;14.27;8.07;;;7.60;95.90;;;;;;5038347;28;20373;-74
2021/11/06 02:29:34;;;;;;;20.83;9.30;;;7.60;96.20;;;;;;5055090;28;20053;-75
2021/11/06 02:32:00;;;;;;;25.47;9.80;;;7.60;95.90;;;;;;5055199;28;20032;-74
2021/11/06 02:34:26;;;;;;;19.83;9.60;;;7.60;95.90;;;;;;5054941;28;20021;-75
2021/11/06 02:36:53;;;;;;;21.30;9.73;;;7.60;95.80;;;;;;5038714;28;20017;-75
2021/11/06 02:39:21;;;;;;;19.40;9.57;;;7.60;95.80;;;;;;5055093;28;20079;-75
2021/11/06 02:41:47;;;;;;;22.10;9.20;;;7.60;95.80;;;;;;5056039;28;20040;-75
2021/11/06 02:44:14;;;;;;;22.20;9.47;;;7.70;96.10;;;;;;5054711;28;20385;-74
2021/11/06 02:46:41;;;;;;;22.10;9.37;;;7.60;95.80;;;;;;5054811;28;20032;-75
2021/11/06 02:49:09;;;;;;;26.93;11.63;;;7.70;95.80;;;;;;5054676;28;20029;-75
2021/11/06 02:51:35;;;;;;;27.23;12.43;;;7.60;95.80;;;;;;5038344;28;20036;-75
2021/11/06 02:54:01;;;;;;;27.53;11.80;;;7.70;95.70;;;;;;5055901;28;20021;-74
2021/11/06 02:56:29;;;;;;;25.23;11.37;;;7.60;95.70;;;;;;5054867;28;20029;-74
2021/11/06 02:58:55;;;;;;;28.07;12.13;;;7.70;95.70;;;;;;5054665;28;20347;-74
2021/11/06 03:01:22;;;;;;;32.03;13.50;;;7.70;95.70;;;;;;5054359;28;20025;-74
2021/11/06 03:03:48;;;;;;;32.83;13.23;;;7.60;95.60;;;;;;5056110;28;20037;-74
2021/11/06 03:06:14;;;;;;;28.77;12.83;;;7.70;95.60;;;;;;5056100;28;20017;-74
2021/11/06 03:08:40;;;;;;;38.97;14.60;;;7.60;95.60;;;;;;5055732;28;20127;-74
2021/11/06 03:11:06;;;;;;;33.10;13.73;;;7.60;95.60;;;;;;5037643;28;20560;-74
2021/11/06 03:13:35;;;;;;;32.00;13.20;;;7.70;95.60;;;;;;5054181;28;20473;-74
2021/11/06 03:16:01;;;;;;;29.87;13.83;;;7.60;95.50;;;;;;5054230;28;20082;-74
2021/11/06 03:18:27;;;;;;;37.03;13.93;;;7.60;95.50;;;;;;5037605;28;20025;-74
2021/11/06 03:20:53;;;;;;;33.60;13.27;;;7.60;95.50;;;;;;5055374;28;20029;-74
2021/11/06 03:23:18;;;;;;;27.70;12.63;;;7.60;95.50;;;;;;5055332;28;20029;-74
2021/11/06 03:25:46;;;;;;;31.07;14.27;;;7.60;95.80;;;;;;5055291;28;20056;-74
2021/11/06 03:28:12;;;;;;;29.57;13.37;;;7.70;95.50;;;;;;5054321;28;20051;-74
2021/11/06 03:30:37;;;;;;;33.07;13.30;;;7.70;95.50;;;;;;5054230;28;20037;-74
2021/11/06 03:33:03;;;;;;;32.10;14.77;;;7.60;95.40;;;;;;5055017;28;20071;-74
2021/11/06 03:35:29;;;;;;;29.40;13.40;;;7.60;95.40;;;;;;5054104;28;20044;-74
2021/11/06 03:37:55;;;;;;;37.83;13.73;;;7.60;95.40;;;;;;5055291;28;20458;-74
2021/11/06 03:40:21;;;;;;;28.37;12.30;;;7.70;95.40;;;;;;5054751;28;20037;-74
2021/11/06 03:42:47;;;;;;;25.40;11.57;;;7.70;95.40;;;;;;5037235;28;20500;-74
2021/11/06 03:45:14;;;;;;;26.97;12.07;;;7.70;95.40;;;;;;5055009;28;20028;-74
2021/11/06 03:47:40;;;;;;;26.77;12.17;;;7.70;95.30;;;;;;5053845;28;20112;-74
2021/11/06 03:50:08;;;;;;;28.43;13.00;;;7.70;95.40;;;;;;5053450;28;20056;-74
2021/11/06 03:52:34;;;;;;;22.37;10.93;;;7.70;95.30;;;;;;5054818;28;20033;-74
2021/11/06 03:55:00;;;;;;;22.70;10.97;;;7.70;95.30;;;;;;5054572;28;20032;-74
2021/11/06 03:57:26;;;;;;;26.77;11.93;;;7.80;95.30;;;;;;5054738;28;20029;-74
2021/11/06 03:59:52;;;;;;;21.87;11.07;;;7.80;95.30;;;;;;5053198;28;20029;-74
2021/11/06 04:02:17;;;;;;;24.97;11.20;;;7.80;95.30;;;;;;5054414;28;20017;-74
2021/11/06 04:04:43;;;;;;;24.50;11.33;;;7.80;95.20;;;;;;5053562;28;20071;-74
2021/11/06 04:07:09;;;;;;;23.27;11.83;;;7.80;95.20;;;;;;5054764;28;20100;-74
2021/11/06 04:09:35;;;;;;;26.57;12.07;;;7.80;95.20;;;;;;5052587;28;20473;-74
2021/11/06 04:12:00;;;;;;;23.13;10.83;;;7.80;95.10;;;;;;5036565;28;20477;-74
2021/11/06 04:14:26;;;;;;;22.27;11.20;;;7.80;95.10;;;;;;5036342;28;20065;-74
2021/11/06 04:16:52;;;;;;;24.90;12.07;;;7.90;95.10;;;;;;5054207;28;20102;-74
2021/11/06 04:19:17;;;;;;;22.17;10.10;;;7.90;95.10;;;;;;5036554;28;20527;-74
2021/11/06 04:21:43;;;;;;;22.67;11.37;;;7.90;95.00;;;;;;5054245;28;20079;-74
2021/11/06 04:24:09;;;;;;;26.87;11.43;;;7.90;95.00;;;;;;5054284;28;20420;-74
2021/11/06 04:26:34;;;;;;;25.50;11.70;;;7.90;94.90;;;;;;5054199;28;20103;-74
2021/11/06 04:29:00;;;;;;;21.33;12.03;;;7.90;94.90;;;;;;5052552;28;20053;-74
2021/11/06 04:31:25;;;;;;;26.33;12.80;;;7.90;94.90;;;;;;5052749;28;20082;-78
2021/11/06 04:33:51;;;;;;;25.00;12.57;;;7.90;94.80;;;;;;5054065;28;20048;-74
2021/11/06 04:36:17;;;;;;;26.07;12.07;;;7.80;94.80;;;;;;5053174;28;20025;-74
2021/11/06 04:38:43;;;;;;;33.60;11.87;;;7.80;94.70;;;;;;5035971;28;20389;-74
2021/11/06 04:41:09;;;;;;;26.53;12.30;;;7.80;94.80;;;;;;5052717;28;20037;-74
2021/11/06 04:43:35;;;;;;;26.43;12.63;;;7.80;94.70;;;;;;5052827;28;20392;-75
2021/11/06 04:46:01;;;;;;;27.90;13.73;;;7.80;94.70;;;;;;5052474;28;20086;-74
2021/11/06 04:48:27;;;;;;;28.10;13.90;;;7.80;94.60;;;;;;5053624;28;20116;-74
2021/11/06 04:50:52;;;;;;;30.47;12.50;;;7.80;94.90;;;;;;5052751;28;20438;-74
2021/11/06 04:53:18;;;;;;;28.23;12.47;;;7.80;94.70;;;;;;5052770;28;20040;-74
2021/11/06 04:55:44;;;;;;;21.83;11.37;;;7.80;94.70;;;;;;5053546;28;20028;-73
2021/11/06 04:58:10;;;;;;;25.87;11.70;;;7.80;94.80;;;;;;5052468;28;20040;-74
2021/11/06 05:00:36;;;;;;;24.93;12.17;;;7.90;94.80;;;;;;5052352;28;20060;-73
2021/11/06 05:03:01;;;;;;;23.17;11.73;;;7.80;94.70;;;;;;5035950;28;20033;-74
2021/11/06 05:05:27;;;;;;;30.23;13.20;;;7.80;94.70;;;;;;5035466;28;20094;-74
2021/11/06 05:07:53;;;;;;;29.77;13.63;;;7.80;94.80;;;;;;5053700;28;20067;-73
2021/11/06 05:10:18;;;;;;;29.83;13.13;;;7.90;94.80;;;;;;5052259;28;20061;-74
2021/11/06 05:12:45;;;;;;;31.17;13.83;;;7.90;94.80;;;;;;5035436;28;20060;-74
2021/11/06 05:15:11;;;;;;;22.53;12.07;;;7.80;94.80;;;;;;5052297;28;20543;-74
2021/11/06 05:17:36;;;;;;;27.83;13.00;;;7.90;94.80;;;;;;5035514;28;20068;-74
2021/11/06 05:20:05;;;;;;;25.43;12.97;;;7.80;94.80;;;;;;5053304;28;20091;-74
2021/11/06 05:22:30;;;;;;;21.87;11.83;;;7.80;94.80;;;;;;5038068;28;20035;-75
2021/11/06 05:24:56;;;;;;;21.90;11.40;;;7.90;94.90;;;;;;5056221;28;20119;-74
2021/11/06 05:27:22;;;;;;;29.13;14.20;;;7.80;94.90;;;;;;5039409;28;20037;-74
2021/11/06 05:29:47;;;;;;;25.63;12.53;;;7.90;94.90;;;;;;5057288;28;20068;-74
2021/11/06 05:32:13;;;;;;;25.73;13.53;;;7.90;95.00;;;;;;5057398;28;20029;-75
2021/11/06 05:34:39;;;;;;;21.93;12.43;;;7.90;95.10;;;;;;5057326;28;20017;-75
2021/11/06 05:37:05;;;;;;;30.83;13.10;;;7.90;95.00;;;;;;5039693;28;20021;-75
2021/11/06 05:39:31;;;;;;;29.50;14.60;;;7.90;95.10;;;;;;5057403;28;20025;-75
2021/11/06 05:41:56;;;;;;;28.47;13.77;;;7.90;95.30;;;;;;5057408;28;20036;-74
2021/11/06 05:44:22;;;;;;;22.33;13.17;;;7.90;95.30;;;;;;5039136;28;20055;-74
2021/11/06 05:46:48;;;;;;;26.47;13.93;;;7.90;95.30;;;;;;5039532;28;20036;-75
2021/11/06 05:49:13;;;;;;;32.70;15.33;;;7.90;95.30;;;;;;5056073;28;20063;-75
2021/11/06 05:51:39;;;;;;;27.57;13.53;;;7.80;95.50;;;;;;5056984;28;20068;-74
2021/11/06 05:54:06;;;;;;;23.20;13.33;;;7.90;95.50;;;;;;5039295;28;20116;-75
2021/11/06 05:56:31;;;;;;;24.37;13.87;;;7.80;95.40;;;;;;5055958;28;20063;-74
2021/11/06 05:58:57;;;;;;;23.83;13.00;;;8.00;95.50;;;;;;5057089;28;20037;-74
2021/11/06 06:01:23;;;;;;;31.10;14.67;;;7.90;95.50;;;;;;5056983;28;20446;-74
2021/11/06 06:03:49;;;;;;;28.67;15.77;;;8.00;95.60;;;;;;5055467;28;20040;-74
2021/11/06 06:06:14;;;;;;;26.97;13.43;;;7.90;95.60;;;;;;5038819;28;20124;-74
2021/11/06 06:08:40;;;;;;;29.43;14.57;;;7.90;95.60;;;;;;5055325;28;20526;-74
2021/11/06 06:11:05;;;;;;;24.83;15.50;;;8.00;95.70;;;;;;5055528;28;20029;-74
2021/11/06 06:13:31;;;;;;;26.50;15.17;;;8.00;95.70;;;;;;5056673;28;20471;-74
2021/11/06 06:15:57;;;;;;;24.10;14.07;;;8.00;95.60;;;;;;5038798;28;20021;-75
2021/11/06 06:18:23;;;;;;;27.47;14.90;;;8.00;95.70;;;;;;5038397;28;20082;-75
2021/11/06 06:20:49;;;;;;;27.70;15.50;;;8.00;95.70;;;;;;5054951;28;20033;-75
2021/11/06 06:23:15;;;;;;;23.23;13.47;;;8.10;95.70;;;;;;5056418;28;20037;-75
2021/11/06 06:25:40;;;;;;;25.50;15.67;;;8.10;95.70;;;;;;5054797;28;20132;-75
2021/11/06 06:28:07;;;;;;;26.10;15.67;;;8.00;95.70;;;;;;5054944;28;20401;-75
2021/11/06 06:30:35;;;;;;;28.67;15.43;;;8.00;95.70;;;;;;5055302;28;20060;-75
2021/11/06 06:33:04;;;;;;;29.87;16.20;;;8.00;95.70;;;;;;5054198;28;20028;-75
2021/11/06 06:35:29;;;;;;;27.57;15.30;;;8.00;95.70;;;;;;5056377;28;20029;-76
2021/11/06 06:38:01;;;;;;;25.07;15.23;;;8.10;95.70;;;;;;5038090;28;20537;-76
2021/11/06 06:40:27;;;;;;;25.10;15.93;;;8.00;95.70;;;;;;5056307;28;20042;-76
2021/11/06 06:42:53;;;;;;;26.17;15.73;;;8.00;95.70;;;;;;5054752;28;20432;-76
2021/11/06 06:45:19;;;;;;;31.00;16.60;;;8.00;95.70;;;;;;5055715;28;20037;-76
2021/11/06 06:47:45;;;;;;;26.77;16.50;;;8.00;95.70;;;;;;5055814;28;20487;-76
2021/11/06 06:50:12;;;;;;;28.97;16.00;;;8.00;95.70;;;;;;5054696;28;20398;-76
2021/11/06 06:52:39;;;;;;;22.83;14.33;;;8.00;95.70;;;;;;5037975;28;20162;-77
2021/11/06 06:55:05;;;;;;;23.87;15.57;;;7.90;95.70;;;;;;5055733;28;20053;-76
2021/11/06 06:57:31;;;;;;;25.77;15.97;;;7.90;95.70;;;;;;5054390;28;20021;-76
2021/11/06 06:59:56;;;;;;;22.83;14.93;;;8.00;95.80;;;;;;5054027;28;20365;-76
2021/11/06 07:02:22;;;;;;;24.73;14.97;;;7.90;95.80;;;;;;5055591;28;20028;-76
2021/11/06 07:04:48;;;;;;;23.90;15.83;;;8.00;95.80;;;;;;5054746;28;20036;-76
2021/11/06 07:07:13;;;;;;;26.53;16.43;;;8.00;95.80;;;;;;5037587;28;20473;-76
2021/11/06 07:09:39;;;;;;;22.70;15.23;;;8.00;95.80;;;;;;5054457;28;20143;-76
2021/11/06 07:12:06;;;;;;;28.70;16.07;;;8.00;95.80;;;;;;5055706;28;20097;-76
2021/11/06 07:14:31;;;;;;;30.97;16.67;;;8.00;95.90;;;;;;5054063;28;20488;-76
2021/11/06 07:16:57;;;;;;;28.30;17.13;;;8.00;95.90;;;;;;5055355;28;20082;-76
2021/11/06 07:19:23;;;;;;;23.03;15.43;;;8.00;95.90;;;;;;5037773;28;20481;-76
2021/11/06 07:21:48;;;;;;;25.27;15.47;;;8.00;95.90;;;;;;5055297;28;20037;-75
2021/11/06 07:24:14;;;;;;;25.77;15.27;;;8.00;96.00;;;;;;5054320;28;20033;-76
2021/11/06 07:26:40;;;;;;;23.27;14.33;;;8.00;96.00;;;;;;5053033;28;20033;-76
2021/11/06 07:29:05;;;;;;;27.50;13.73;;;8.10;96.10;;;;;;5054609;28;20061;-76
2021/11/06 07:31:31;;;;;;;32.13;15.63;;;8.10;96.10;;;;;;5036194;28;20035;-75
2021/11/06 07:33:57;;;;;;;25.97;15.97;;;8.10;96.20;;;;;;5049451;28;20079;-76
2021/11/06 07:36:24;;;;;;;31.43;17.10;;;8.10;96.20;;;;;;5036440;28;20029;-76
2021/11/06 07:38:52;;;;;;;25.13;14.90;;;8.10;96.20;;;;;;5053473;28;20025;-75
2021/11/06 07:41:18;;;;;;;28.87;16.23;;;8.10;96.20;;;;;;5053502;28;20028;-76
2021/11/06 07:43:44;;;;;;;21.77;14.00;;;8.20;96.30;;;;;;5052671;28;20436;-76
2021/11/06 07:46:10;;;;;;;25.30;15.07;;;8.10;96.20;;;;;;5054011;28;20303;-76
2021/11/06 07:48:36;;;;;;;22.67;13.90;;;8.20;96.30;;;;;;5054471;28;20481;-76
2021/11/06 07:51:02;;;;;;;21.47;13.57;;;8.20;96.30;;;;;;5054025;28;20067;-76
2021/11/06 07:53:28;;;;;;;23.13;14.50;;;8.20;96.20;;;;;;5054586;28;20033;-76
2021/11/06 07:55:54;;;;;;;22.53;14.03;;;8.20;96.20;;;;;;5047583;28;20032;-76
2021/11/06 07:58:20;;;;;;;23.70;15.23;;;8.20;96.20;;;;;;5054033;28;20017;-76
2021/11/06 08:00:45;;;;;;;23.47;13.70;;;8.20;96.30;;;;;;5053997;28;20116;-76
2021/11/06 08:03:11;;;;;;;20.23;13.87;;;8.20;96.20;;;;;;5054060;28;20119;-76
2021/11/06 08:05:37;;;;;;;22.90;13.33;;;8.30;96.20;;;;;;5053272;28;20044;-76
2021/11/06 08:08:03;;;;;;;21.43;13.23;;;8.30;96.20;;;;;;5054323;28;20037;-76
2021/11/06 08:10:30;;;;;;;25.77;13.70;;;8.30;96.20;;;;;;5053276;28;20064;-76
2021/11/06 08:13:01;;;;;;;21.90;13.97;;;8.30;96.30;;;;;;5053221;28;20132;-74
2021/11/06 08:15:27;;;;;;;22.87;13.33;;;8.30;96.20;;;;;;5053212;28;20024;-75
2021/11/06 08:17:53;;;;;;;21.87;12.70;;;8.40;96.30;;;;;;5053370;28;20028;-76
2021/11/06 08:20:25;;;;;;;21.13;12.33;;;8.40;96.30;;;;;;5053529;28;20469;-73
2021/11/06 08:22:52;;;;;;;19.03;12.23;;;8.50;96.30;;;;;;5052651;28;20036;-73
2021/11/06 08:25:19;;;;;;;19.20;11.63;;;8.50;96.30;;;;;;5053118;28;20040;-73
2021/11/06 08:27:51;;;;;;;19.80;12.30;;;8.60;96.30;;;;;;5052536;28;20048;-73
2021/11/06 08:30:19;;;;;;;19.53;12.17;;;8.60;96.30;;;;;;5052511;28;20056;-72
2021/11/06 08:32:47;;;;;;;20.47;12.13;;;8.80;96.20;;;;;;5054178;28;20108;-73
2021/11/06 08:35:13;;;;;;;18.33;10.97;;;8.90;96.20;;;;;;5053784;28;20040;-76
2021/11/06 08:37:40;;;;;;;20.50;11.83;;;8.80;96.00;;;;;;5053913;28;20452;-76
2021/11/06 08:40:08;;;;;;;21.93;11.70;;;8.80;96.00;;;;;;5054179;28;20040;-76
2021/11/06 08:42:35;;;;;;;20.00;12.37;;;8.80;95.90;;;;;;5053829;28;20025;-76
2021/11/06 08:45:06;;;;;;;17.97;11.43;;;8.90;95.80;;;;;;5035765;28;20033;-77
2021/11/06 08:47:32;;;;;;;18.13;11.57;;;8.90;95.80;;;;;;5053570;28;20458;-77
2021/11/06 08:49:58;;;;;;;17.77;11.03;;;9.00;95.80;;;;;;5053751;28;20029;-74
2021/11/06 08:52:23;;;;;;;19.73;11.40;;;9.00;95.70;;;;;;5053618;28;20029;-73
2021/11/06 08:54:50;;;;;;;17.03;9.53;;;9.00;95.60;;;;;;5053467;28;20449;-72
2021/11/06 08:57:20;;;;;;;15.47;10.70;;;9.10;95.60;;;;;;5052192;28;20067;-72
2021/11/06 08:59:49;;;;;;;16.17;9.63;;;9.10;95.60;;;;;;5053492;28;20113;-72
2021/11/06 09:02:17;;;;;;;16.80;9.53;;;9.00;95.50;;;;;;5053491;28;20104;-72
2021/11/06 09:04:44;;;;;;;18.17;10.50;;;9.10;95.50;;;;;;5053323;28;20030;-73
2021/11/06 09:07:10;;;;;;;18.20;9.07;;;9.10;95.50;;;;;;5053198;28;20864;-72
2021/11/06 09:09:39;;;;;;;16.80;9.03;;;9.20;95.50;;;;;;5051920;28;20032;-72
2021/11/06 09:12:05;;;;;;;18.60;9.73;;;9.30;95.40;;;;;;5051502;28;20477;-72
2021/11/06 09:14:32;;;;;;;20.20;11.57;;;9.30;95.20;;;;;;5051916;28;20030;-72
2021/11/06 09:16:58;;;;;;;16.57;10.13;;;9.40;95.10;;;;;;5053211;28;20032;-73
2021/11/06 09:19:23;;;;;;;13.90;8.17;;;9.50;95.20;;;;;;5051750;28;20441;-73
2021/11/06 09:21:49;;;;;;;17.43;9.57;;;9.40;95.10;;;;;;5051747;28;20086;-73
2021/11/06 09:24:17;;;;;;;17.77;8.40;;;9.50;95.00;;;;;;5051734;28;20052;-72
2021/11/06 09:26:43;;;;;;;15.03;8.43;;;9.50;95.00;;;;;;5051819;28;20115;-72
2021/11/06 09:29:11;;;;;;;14.87;9.23;;;9.50;95.00;;;;;;5052878;28;20136;-72
2021/11/06 09:31:37;;;;;;;15.07;8.47;;;9.60;94.70;;;;;;5051839;28;20519;-73
2021/11/06 09:34:05;;;;;;;16.87;8.33;;;9.60;94.70;;;;;;5052991;28;20036;-72
2021/11/06 09:36:32;;;;;;;14.60;8.97;;;9.60;94.80;;;;;;5051560;28;20017;-72
2021/11/06 09:39:01;;;;;;;18.27;8.63;;;9.60;94.60;;;;;;5051468;28;20099;-72
2021/11/06 09:41:28;;;;;;;15.00;7.67;;;9.70;94.70;;;;;;5053192;28;20048;-73
2021/11/06 09:43:54;;;;;;;13.37;8.07;;;9.70;94.70;;;;;;5052044;28;20401;-72
2021/11/06 09:46:20;;;;;;;14.13;8.10;;;9.80;94.40;;;;;;5052063;28;20037;-71
2021/11/06 09:48:48;;;;;;;20.13;7.93;;;9.80;94.40;;;;;;5051602;28;20025;-72
2021/11/06 09:51:16;;;;;;;16.10;8.40;;;9.80;94.40;;;;;;5051794;28;20032;-72
2021/11/06 09:53:43;;;;;;;12.27;7.57;;;9.90;94.30;;;;;;5052712;28;20358;-72
2021/11/06 09:56:10;;;;;;;14.03;7.23;;;10.00;94.20;;;;;;5053366;28;20059;-72
2021/11/06 09:58:36;;;;;;;14.80;7.97;;;10.10;94.10;;;;;;5053182;28;20029;-73
2021/11/06 10:01:04;;;;;;;11.10;6.43;;;10.10;93.90;;;;;;5053097;28;20021;-74
2021/11/06 10:03:30;;;;;;;16.57;8.60;;;10.10;93.80;;;;;;5051651;28;20446;-73
2021/11/06 10:06:01;;;;;;;13.33;7.43;;;10.20;93.70;;;;;;5051418;28;20061;-73
2021/11/06 10:08:38;;;;;;;18.13;6.70;;;10.30;93.80;;;;;;5054144;28;20102;-72
2021/11/06 10:11:13;;;;;;;14.87;8.17;;;10.30;93.30;;;;;;5056688;28;20029;-72
2021/11/06 10:13:58;;;;;;;13.17;6.93;;;10.30;93.00;;;;;;5055103;28;20017;-72
2021/11/06 10:16:38;;;;;;;11.23;7.00;;;10.40;93.10;;;;;;5056540;28;20021;-72
2021/11/06 10:19:06;;;;;;;12.33;6.50;;;10.40;92.50;;;;;;5056452;28;20461;-72
2021/11/06 10:21:31;;;;;;;13.53;6.13;;;10.40;92.60;;;;;;5056292;28;20465;-73
2021/11/06 10:23:58;;;;;;;12.63;6.63;;;10.40;92.60;;;;;;5038665;28;20040;-72
2021/11/06 10:26:24;;;;;;;13.63;5.77;;;10.50;92.60;;;;;;5054968;28;20040;-72
2021/11/06 10:29:22;;;;;;;12.63;6.10;;;10.50;92.40;;;;;;5054753;28;20057;-73
2021/11/06 10:31:53;;;;;;;12.93;6.50;;;10.50;92.50;;;;;;5066281;28;20456;-73
2021/11/06 10:34:21;;;;;;;13.07;6.27;;;10.50;92.50;;;;;;5056472;28;20040;-73
2021/11/06 10:36:57;;;;;;;9.90;5.57;;;10.50;92.30;;;;;;5056364;28;20028;-71
2021/11/06 10:39:23;;;;;;;15.17;6.10;;;10.60;92.40;;;;;;5054676;28;20037;-72
2021/11/06 10:41:49;;;;;;;8.97;5.57;;;10.60;92.50;;;;;;5055952;28;20428;-72
2021/11/06 10:44:19;;;;;;;12.10;6.10;;;10.70;92.50;;;;;;5054911;28;20370;-73
2021/11/06 10:46:52;;;;;;;10.57;5.67;;;10.60;92.30;;;;;;5053918;28;20369;-72
2021/11/06 10:49:38;;;;;;;10.20;5.38;;;10.70;92.60;;;;;;5054937;28;20221;-73
2021/11/06 10:52:13;;;;;;;9.60;5.23;;;10.80;92.50;;;;;;5055721;28;20029;-73
2021/11/06 10:55:08;;;;;;;12.30;5.23;;;10.80;92.10;;;;;;5055970;28;20029;-73
2021/11/06 10:57:34;;;;;;;9.63;5.13;;;10.80;92.10;;;;;;5055932;28;20021;-73
2021/11/06 11:00:17;;;;;;;8.00;4.38;;;10.90;92.10;;;;;;5055602;28;20033;-73
2021/11/06 11:02:42;;;;;;;10.82;5.32;;;11.00;91.90;;;;;;5054601;28;20024;-73
2021/11/06 11:05:31;;;;;;;11.07;6.00;;;11.10;91.60;;;;;;5037621;28;20032;-73
2021/11/06 11:08:08;;;;;;;9.38;4.38;;;11.10;91.50;;;;;;5051272;28;20416;-73
2021/11/06 11:10:36;;;;;;;8.48;4.18;;;11.30;91.60;;;;;;5054193;28;20477;-73
2021/11/06 11:13:13;;;;;;;8.60;4.30;;;11.40;91.40;;;;;;5055471;28;20052;-73
2021/11/06 11:15:40;;;;;;;8.40;4.40;;;11.40;91.10;;;;;;5055543;28;20481;-73
2021/11/06 11:18:05;;;;;;;10.48;4.28;;;11.40;90.80;;;;;;5054956;28;20021;-72
2021/11/06 11:20:39;;;;;;;8.07;4.05;;;11.50;90.90;;;;;;5054039;28;20114;-73
2021/11/06 11:23:11;;;;;;;7.18;3.53;;;11.40;90.50;;;;;;5053965;28;20025;-74
2021/11/06 11:25:41;;;;;;;9.15;4.60;;;11.50;90.50;;;;;;5054743;28;20025;-73
2021/11/06 11:28:08;;;;;;;9.32;4.25;;;11.50;90.40;;;;;;5055009;28;20116;-72
2021/11/06 11:30:34;;;;;;;8.65;3.88;;;11.50;90.30;;;;;;5053738;28;20035;-73
2021/11/06 11:33:01;;;;;;;10.35;4.25;;;11.50;90.20;;;;;;5053704;28;20025;-74
2021/11/06 11:35:27;;;;;;;8.82;4.40;;;11.50;90.20;;;;;;5036668;28;20029;-74
2021/11/06 11:37:58;;;;;;;9.43;4.47;;;11.60;90.30;;;;;;5053469;28;20055;-74
2021/11/06 11:40:28;;;;;;;8.60;3.95;;;11.60;89.90;;;;;;5053595;28;20017;-73
2021/11/06 11:43:28;;;;;;;7.43;3.75;;;11.60;90.10;;;;;;5053392;28;20025;-76
2021/11/06 11:46:00;;;;;;;7.97;4.00;;;11.60;90.30;;;;;;5054874;28;20017;-76
2021/11/06 11:48:28;;;;;;;9.32;4.53;;;11.70;89.80;;;;;;5053915;28;20112;-76
2021/11/06 11:51:03;;;;;;;9.93;4.25;;;11.80;90.20;;;;;;5053388;28;20040;-77
2021/11/06 11:53:32;;;;;;;10.10;4.88;;;11.80;89.20;;;;;;5054650;28;20591;-77
2021/11/06 11:56:05;;;;;;;10.75;4.60;;;11.90;88.70;;;;;;5053285;28;20391;-76
2021/11/06 11:58:42;;;;;;;7.95;3.95;;;11.80;88.40;;;;;;5054965;28;20025;-76
2021/11/06 12:01:17;;;;;;;9.65;3.92;;;11.90;88.60;;;;;;5054546;28;20029;-77
2021/11/06 12:03:45;;;;;;;7.15;4.07;;;11.90;88.30;;;;;;5053135;28;20086;-77
2021/11/06 12:06:39;;;;;;;8.15;3.72;;;11.90;87.60;;;;;;5036980;28;20033;-78
2021/11/06 12:09:11;;;;;;;8.15;3.92;;;11.90;87.70;;;;;;5052209;28;20368;-77
2021/11/06 12:12:02;;;;;;;11.32;4.07;;;12.00;88.50;;;;;;5054519;28;20496;-76
2021/11/06 12:14:41;;;;;;;6.85;3.30;;;12.40;88.40;;;;;;5053328;28;20025;-77
2021/11/06 12:17:09;;;;;;;7.07;3.30;;;12.80;88.20;;;;;;5053969;28;20021;-77
2021/11/06 12:19:53;;;;;;;7.45;3.28;;;13.20;87.20;;;;;;5054288;28;20033;-77
2021/11/06 12:22:28;;;;;;;;;;;13.40;84.80;;;;;;5052475;28;20493;-77
2021/11/06 12:25:16;;;;;;;;;;;13.60;84.00;;;;;;5054559;28;20384;-78
2021/11/06 12:27:59;;;;;;;8.90;3.50;;;13.80;83.70;;;;;;5086580;28;19952;-77
2021/11/06 12:30:33;;;;;;;6.27;2.73;;;14.00;81.60;;;;;;5053780;28;20495;-78
2021/11/06 12:32:59;;;;;;;8.40;3.92;;;14.10;80.70;;;;;;5054535;28;20070;-82
2021/11/06 12:35:28;;;;;;;8.82;4.00;;;13.90;79.40;;;;;;5052566;28;20541;-77
2021/11/06 12:37:55;;;;;;;9.50;3.85;;;13.70;78.80;;;;;;5053645;28;20029;-77
2021/11/06 12:40:33;;;;;;;8.02;4.03;;;13.50;79.40;;;;;;5050252;28;20044;-78
2021/11/06 12:43:02;;;;;;;6.85;3.63;;;13.30;79.90;;;;;;5049004;28;20029;-77